createdAt,value
2023-04-18T00:02:24.272Z,7.90
2023-04-18T00:04:51.375Z,7.47
2023-04-18T00:07:18.164Z,7.20
2023-04-18T00:09:44.940Z,6.55
2023-04-18T00:12:12.043Z,6.07
2023-04-18T00:14:39.159Z,6.65
2023-04-18T00:17:09.044Z,6.07
2023-04-18T00:19:37.845Z,5.43
2023-04-18T00:22:04.401Z,5.40
2023-04-18T00:24:32.014Z,5.55
2023-04-18T00:26:58.693Z,6.43
2023-04-18T00:29:25.381Z,6.43
2023-04-18T00:31:51.977Z,7.00
2023-04-18T00:34:18.999Z,6.63
2023-04-18T00:36:45.848Z,7.15
2023-04-18T00:39:12.514Z,6.95
2023-04-18T00:41:39.209Z,7.40
2023-04-18T00:44:06.292Z,7.68
2023-04-18T00:46:33.303Z,7.40
2023-04-18T00:49:00.023Z,8.18
2023-04-18T00:51:28.124Z,7.70
2023-04-18T00:53:54.912Z,7.53
2023-04-18T00:56:24.124Z,8.93
2023-04-18T00:58:51.258Z,9.05
2023-04-18T01:01:18.274Z,9.43
2023-04-18T01:03:45.144Z,9.60
2023-04-18T01:06:11.979Z,10.80
2023-04-18T01:08:39.115Z,12.68
2023-04-18T01:11:06.008Z,13.65
2023-04-18T01:13:32.634Z,14.23
2023-04-18T01:15:59.535Z,13.95
2023-04-18T01:18:26.826Z,13.30
2023-04-18T01:20:54.877Z,12.90
2023-04-18T01:23:21.474Z,13.55
2023-04-18T01:25:51.606Z,10.35
2023-04-18T01:28:20.113Z,10.27
2023-04-18T01:30:47.064Z,8.95
2023-04-18T01:33:13.678Z,9.32
2023-04-18T01:35:40.419Z,9.18
2023-04-18T01:38:07.045Z,8.98
2023-04-18T01:40:34.016Z,7.97
2023-04-18T01:43:00.752Z,6.70
2023-04-18T01:45:27.437Z,7.93
2023-04-18T01:47:54.476Z,8.45
2023-04-18T01:50:21.241Z,8.48
2023-04-18T01:52:47.863Z,7.93
2023-04-18T01:55:14.464Z,7.95
2023-04-18T01:57:41.162Z,8.60
2023-04-18T02:00:08.645Z,10.50
2023-04-18T02:02:35.641Z,9.68
2023-04-18T02:05:02.489Z,10.68
2023-04-18T02:07:29.149Z,12.13
2023-04-18T02:09:55.996Z,11.98
2023-04-18T02:12:22.688Z,12.73
2023-04-18T02:14:53.660Z,13.02
2023-04-18T02:17:24.122Z,13.57
2023-04-18T02:19:51.762Z,13.52
2023-04-18T02:22:19.027Z,14.05
2023-04-18T02:24:46.127Z,14.00
2023-04-18T02:27:13.458Z,13.95
2023-04-18T02:29:40.174Z,14.82
2023-04-18T02:32:07.330Z,15.27
2023-04-18T02:34:34.297Z,15.98
2023-04-18T02:37:01.340Z,16.33
2023-04-18T02:39:28.331Z,17.67
2023-04-18T02:41:55.118Z,17.45
2023-04-18T02:44:21.875Z,17.40
2023-04-18T02:46:48.495Z,18.70
2023-04-18T02:49:15.341Z,17.90
2023-04-18T02:51:41.940Z,18.88
2023-04-18T02:54:09.081Z,18.92
2023-04-18T02:56:40.422Z,19.70
2023-04-18T02:59:07.288Z,18.67
2023-04-18T03:01:34.404Z,21.08
2023-04-18T03:04:01.134Z,19.50
2023-04-18T03:06:27.750Z,20.80
2023-04-18T03:08:55.616Z,21.05
2023-04-18T03:11:22.574Z,19.48
2023-04-18T03:13:49.394Z,21.60
2023-04-18T03:16:17.044Z,21.20
2023-04-18T03:18:44.259Z,21.63
2023-04-18T03:21:11.538Z,20.98
2023-04-18T03:23:38.597Z,21.75
2023-04-18T03:26:09.036Z,23.00
2023-04-18T03:28:35.833Z,21.33
2023-04-18T03:31:02.627Z,22.83
2023-04-18T03:33:29.438Z,21.60
2023-04-18T03:35:56.461Z,22.08
2023-04-18T03:38:23.587Z,21.65
2023-04-18T03:40:50.452Z,21.45
2023-04-18T03:43:20.091Z,22.40
2023-04-18T03:45:47.630Z,20.30
2023-04-18T03:48:14.853Z,21.52
2023-04-18T03:50:41.574Z,20.95
2023-04-18T03:53:08.221Z,22.73
2023-04-18T03:55:35.250Z,21.38
2023-04-18T03:58:02.044Z,20.80
2023-04-18T04:00:29.354Z,21.25
2023-04-18T04:02:56.663Z,19.38
2023-04-18T04:05:23.622Z,18.92
2023-04-18T04:07:50.397Z,18.30
2023-04-18T04:10:17.080Z,15.98
2023-04-18T04:12:43.704Z,16.75
2023-04-18T04:15:11.130Z,16.70
2023-04-18T04:17:37.795Z,15.75
2023-04-18T04:20:05.460Z,18.00
2023-04-18T04:22:32.784Z,17.75
2023-04-18T04:25:00.931Z,17.27
2023-04-18T04:27:28.248Z,17.85
2023-04-18T04:29:54.956Z,18.10
2023-04-18T04:32:21.899Z,18.17
2023-04-18T04:34:49.597Z,17.70
2023-04-18T04:37:18.872Z,18.73
2023-04-18T04:39:46.327Z,18.58
2023-04-18T04:42:13.523Z,17.08
2023-04-18T04:44:41.909Z,15.95
2023-04-18T04:47:08.587Z,17.65
2023-04-18T04:49:35.516Z,18.23
2023-04-18T04:52:03.152Z,18.85
2023-04-18T04:54:29.833Z,17.60
2023-04-18T04:56:56.747Z,18.17
2023-04-18T04:59:24.117Z,17.80
2023-04-18T05:01:51.237Z,16.42
2023-04-18T05:04:18.479Z,17.73
2023-04-18T05:06:46.219Z,17.48
2023-04-18T05:09:13.717Z,17.15
2023-04-18T05:11:40.696Z,16.52
2023-04-18T05:14:07.513Z,16.60
2023-04-18T05:16:34.811Z,16.42
2023-04-18T05:19:01.821Z,16.52
2023-04-18T05:21:28.935Z,14.68
2023-04-18T05:23:56.422Z,16.70
2023-04-18T05:26:23.546Z,16.48
2023-04-18T05:28:50.582Z,15.93
2023-04-18T05:31:17.492Z,16.63
2023-04-18T05:33:44.174Z,17.67
2023-04-18T05:36:11.698Z,16.55
2023-04-18T05:38:38.491Z,16.33
2023-04-18T05:41:05.270Z,16.30
2023-04-18T05:43:31.936Z,15.50
2023-04-18T05:45:58.618Z,16.00
2023-04-18T05:48:25.373Z,15.90
2023-04-18T05:50:53.548Z,17.63
2023-04-18T05:53:20.363Z,16.30
2023-04-18T05:55:49.257Z,14.27
2023-04-18T05:58:16.693Z,13.57
2023-04-18T06:00:43.613Z,15.48
2023-04-18T06:03:11.322Z,16.20
2023-04-18T06:05:38.671Z,13.20
2023-04-18T06:08:06.108Z,15.60
2023-04-18T06:10:32.787Z,16.75
2023-04-18T06:12:59.381Z,15.77
2023-04-18T06:15:26.031Z,14.82
2023-04-18T06:17:52.748Z,14.73
2023-04-18T06:20:19.586Z,15.82
2023-04-18T06:22:46.204Z,14.18
2023-04-18T06:25:12.986Z,14.18
2023-04-18T06:27:40.005Z,12.85
2023-04-18T06:30:08.160Z,12.60
2023-04-18T06:32:34.850Z,12.88
2023-04-18T06:35:02.008Z,11.55
2023-04-18T06:37:29.248Z,11.35
2023-04-18T06:39:55.992Z,11.10
2023-04-18T06:42:23.127Z,11.32
2023-04-18T06:44:51.095Z,10.48
2023-04-18T06:47:18.011Z,11.23
2023-04-18T06:49:44.626Z,11.30
2023-04-18T06:52:11.825Z,10.75
2023-04-18T06:54:38.482Z,9.90
2023-04-18T06:57:05.121Z,10.73
2023-04-18T06:59:31.736Z,10.85
2023-04-18T07:01:58.359Z,11.98
2023-04-18T07:04:25.229Z,13.20
2023-04-18T07:06:52.188Z,12.95
2023-04-18T07:09:19.096Z,12.32
2023-04-18T07:11:46.104Z,12.38
2023-04-18T07:14:13.253Z,13.50
2023-04-18T07:16:40.404Z,12.57
2023-04-18T07:19:07.128Z,11.60
2023-04-18T07:21:33.830Z,11.52
2023-04-18T07:24:00.584Z,11.88
2023-04-18T07:26:27.721Z,10.73
2023-04-18T07:28:55.232Z,10.68
2023-04-18T07:31:22.334Z,10.45
2023-04-18T07:33:49.373Z,8.65
2023-04-18T07:36:16.235Z,7.75
2023-04-18T07:38:42.876Z,7.75
2023-04-18T07:41:09.669Z,7.03
2023-04-18T07:43:36.546Z,8.00
2023-04-18T07:46:03.247Z,7.93
2023-04-18T07:48:29.913Z,7.45
2023-04-18T07:50:56.698Z,7.22
2023-04-18T07:53:23.674Z,6.28
2023-04-18T07:55:50.984Z,6.85
2023-04-18T07:58:17.735Z,7.47
2023-04-18T08:00:45.343Z,6.47
2023-04-18T08:03:13.419Z,6.93
2023-04-18T08:05:41.899Z,5.03
2023-04-18T08:08:10.792Z,5.65
2023-04-18T08:10:37.973Z,5.45
2023-04-18T08:13:04.869Z,5.57
2023-04-18T08:15:33.135Z,5.72
2023-04-18T08:18:02.295Z,4.90
2023-04-18T08:20:29.036Z,5.28
2023-04-18T08:25:25.819Z,5.28
2023-04-18T08:27:52.719Z,7.25
2023-04-18T08:30:19.507Z,6.80
2023-04-18T08:32:46.585Z,5.13
2023-04-18T08:35:13.274Z,3.90
2023-04-18T08:37:40.050Z,4.47
2023-04-18T08:40:07.939Z,4.80
2023-04-18T08:42:36.125Z,3.95
2023-04-18T08:45:04.322Z,3.28
2023-04-18T08:47:31.796Z,2.85
2023-04-18T08:49:58.786Z,3.25
2023-04-18T08:52:27.458Z,3.60
2023-04-18T08:54:54.165Z,1.98
2023-04-18T08:57:23.763Z,2.10
2023-04-18T08:59:51.157Z,2.60
2023-04-18T09:02:19.650Z,2.55
2023-04-18T09:04:49.410Z,2.72
2023-04-18T09:07:17.477Z,3.65
2023-04-18T09:09:54.307Z,1.80
2023-04-18T09:12:23.632Z,1.33
2023-04-18T09:14:56.625Z,1.98
2023-04-18T09:17:38.262Z,1.58
2023-04-18T09:20:06.345Z,2.60
2023-04-18T09:22:51.575Z,1.98
2023-04-18T09:25:45.238Z,2.30
2023-04-18T09:28:27.264Z,3.03
2023-04-18T09:30:55.087Z,3.58
2023-04-18T09:33:33.186Z,2.40
2023-04-18T09:36:20.928Z,1.42
2023-04-18T09:38:49.506Z,1.27
2023-04-18T09:41:19.824Z,0.60
2023-04-18T09:43:47.553Z,0.40
2023-04-18T09:46:15.055Z,0.10
2023-04-18T09:48:42.100Z,0.00
2023-04-18T09:51:15.940Z,0.10
2023-04-18T09:53:49.263Z,0.10
2023-04-18T09:56:25.715Z,0.10
2023-04-18T09:58:59.642Z,0.20
2023-04-18T10:01:28.692Z,0.20
2023-04-18T10:03:57.516Z,0.28
2023-04-18T10:06:27.554Z,0.20
2023-04-18T10:08:55.508Z,0.40
2023-04-18T10:11:24.396Z,0.40
2023-04-18T10:13:56.510Z,0.50
2023-04-18T10:16:23.921Z,0.40
2023-04-18T10:18:53.527Z,0.47
2023-04-18T10:21:21.924Z,0.82
2023-04-18T10:23:49.540Z,0.77
2023-04-18T10:26:17.094Z,0.60
2023-04-18T10:28:58.008Z,0.60
2023-04-18T10:31:27.783Z,0.70
2023-04-18T10:36:29.394Z,0.70
2023-04-18T10:39:01.125Z,0.70
2023-04-18T10:41:30.320Z,0.52
2023-04-18T10:44:09.834Z,0.43
2023-04-18T10:46:38.602Z,0.50
2023-04-18T10:49:22.898Z,0.45
2023-04-18T10:52:01.800Z,0.40
2023-04-18T10:54:51.756Z,0.40
2023-04-18T10:57:18.593Z,0.30
2023-04-18T10:59:50.052Z,0.40
2023-04-18T11:02:29.789Z,0.40
2023-04-18T11:05:02.300Z,0.40
2023-04-18T11:07:55.785Z,0.40
2023-04-18T11:10:24.690Z,0.30
2023-04-18T11:12:51.963Z,0.40
2023-04-18T11:15:22.496Z,0.40
2023-04-18T11:18:05.236Z,0.35
2023-04-18T11:20:46.256Z,0.30
2023-04-18T11:23:18.834Z,0.40
2023-04-18T11:25:45.491Z,0.40
2023-04-18T11:28:13.729Z,0.50
2023-04-18T11:30:41.352Z,0.50
2023-04-18T11:33:09.276Z,0.50
2023-04-18T11:35:41.163Z,0.40
2023-04-18T11:38:26.952Z,0.40
2023-04-18T11:40:53.942Z,0.30
2023-04-18T11:43:23.662Z,0.43
2023-04-18T11:45:54.041Z,0.40
2023-04-18T11:48:20.940Z,0.30
2023-04-18T11:50:47.561Z,0.32
2023-04-18T11:53:14.511Z,0.30
2023-04-18T11:55:41.145Z,0.20
2023-04-18T11:58:08.054Z,0.20
2023-04-18T12:00:39.515Z,0.20
2023-04-18T12:03:11.827Z,0.20
2023-04-18T12:05:40.312Z,0.22
2023-04-18T12:08:08.290Z,0.20
2023-04-18T12:10:36.398Z,0.30
2023-04-18T12:13:08.275Z,0.30
2023-04-18T12:15:39.074Z,0.40
2023-04-18T12:18:08.638Z,0.30
2023-04-18T12:20:47.474Z,0.30
2023-04-18T12:23:33.755Z,0.30
2023-04-18T12:26:04.868Z,0.30
2023-04-18T12:28:32.640Z,0.28
2023-04-18T12:30:59.469Z,0.30
2023-04-18T12:33:27.030Z,0.30
2023-04-18T12:35:54.155Z,0.20
2023-04-18T12:38:23.364Z,0.25
2023-04-18T12:40:51.205Z,0.30
2023-04-18T12:43:19.274Z,0.30
2023-04-18T12:45:47.502Z,0.30
2023-04-18T12:48:14.431Z,0.30
2023-04-18T12:50:41.260Z,0.20
2023-04-18T12:53:08.270Z,0.20
2023-04-18T12:55:35.463Z,0.28
2023-04-18T12:58:03.509Z,0.10
2023-04-18T13:00:32.052Z,0.20
2023-04-18T13:02:59.592Z,0.10
2023-04-18T13:05:32.071Z,0.10
2023-04-18T13:08:15.143Z,0.10
2023-04-18T13:10:43.411Z,0.20
2023-04-18T13:13:10.643Z,0.10
2023-04-18T13:15:37.650Z,0.10
2023-04-18T13:18:06.560Z,0.10
2023-04-18T13:20:34.971Z,0.15
2023-04-18T13:23:04.880Z,0.10
2023-04-18T13:25:31.753Z,0.10
2023-04-18T13:28:01.407Z,0.10
2023-04-18T13:30:28.391Z,0.10
2023-04-18T13:32:55.588Z,0.10
2023-04-18T13:35:22.308Z,0.10
2023-04-18T13:37:49.050Z,0.00
2023-04-18T13:40:15.888Z,0.10
2023-04-18T13:42:43.049Z,0.00
2023-04-18T13:45:10.317Z,0.10
2023-04-18T13:47:37.813Z,0.10
2023-04-18T13:50:05.697Z,0.03
2023-04-18T13:52:32.468Z,0.10
2023-04-18T13:54:59.597Z,0.10
2023-04-18T13:57:26.363Z,0.10
2023-04-18T13:59:53.052Z,0.00
2023-04-18T14:02:19.970Z,0.00
2023-04-18T14:04:46.828Z,0.68
2023-04-18T14:07:13.758Z,0.00
2023-04-18T14:09:40.595Z,0.10
2023-04-18T14:12:07.402Z,0.00
2023-04-18T14:14:34.083Z,0.10
2023-04-18T14:17:01.107Z,0.00
2023-04-18T14:19:28.877Z,0.05
2023-04-18T14:21:55.597Z,0.10
2023-04-18T14:24:22.493Z,0.00
2023-04-18T14:26:49.199Z,0.00
2023-04-18T14:29:18.672Z,0.10
2023-04-18T14:31:46.508Z,0.10
2023-04-18T14:34:13.745Z,0.03
2023-04-18T14:36:40.426Z,0.10
2023-04-18T14:39:08.233Z,0.10
2023-04-18T14:41:35.105Z,0.10
2023-04-18T14:44:02.383Z,0.10
2023-04-18T14:46:29.344Z,0.10
2023-04-18T14:48:56.923Z,0.10
2023-04-18T14:51:23.940Z,0.03
2023-04-18T14:53:52.207Z,0.00
2023-04-18T14:56:21.226Z,0.10
2023-04-18T14:58:48.191Z,0.10
2023-04-18T15:01:15.351Z,0.10
2023-04-18T15:03:42.103Z,0.10
2023-04-18T15:06:09.887Z,0.08
2023-04-18T15:08:36.915Z,0.08
2023-04-18T15:11:08.185Z,0.10
2023-04-18T15:13:35.915Z,0.03
2023-04-18T15:16:03.321Z,0.00
2023-04-18T15:18:30.109Z,0.10
2023-04-18T15:20:59.747Z,0.10
2023-04-18T15:23:26.773Z,0.10
2023-04-18T15:25:53.632Z,0.00
2023-04-18T15:28:20.285Z,0.10
2023-04-18T15:30:46.995Z,0.10
2023-04-18T15:33:14.015Z,0.00
2023-04-18T15:35:42.259Z,0.00
2023-04-18T15:38:08.834Z,0.00
2023-04-18T15:40:36.711Z,0.00
2023-04-18T15:43:04.163Z,0.00
2023-04-18T15:45:31.131Z,0.00
2023-04-18T15:47:57.883Z,0.00
2023-04-18T15:50:24.772Z,0.10
2023-04-18T15:52:51.321Z,0.10
2023-04-18T15:55:17.992Z,0.08
2023-04-18T15:57:44.719Z,0.08
2023-04-18T16:00:16.508Z,0.10
2023-04-18T16:02:46.768Z,0.03
2023-04-18T16:05:14.227Z,0.00
2023-04-18T16:07:42.604Z,0.00
2023-04-18T16:10:11.133Z,0.10
2023-04-18T16:12:39.547Z,0.10
2023-04-18T16:15:08.868Z,0.00
2023-04-18T16:17:38.799Z,0.05
2023-04-18T16:20:06.631Z,0.00
2023-04-18T16:25:28.449Z,0.10
2023-04-18T16:27:55.472Z,0.10
2023-04-18T16:30:22.066Z,0.00
2023-04-18T16:32:48.954Z,0.10
2023-04-18T16:35:15.705Z,0.10
2023-04-18T16:37:42.341Z,0.00
2023-04-18T16:40:10.289Z,0.10
2023-04-18T16:42:37.052Z,0.20
2023-04-18T16:45:04.081Z,0.10
2023-04-18T16:47:30.829Z,0.30
2023-04-18T16:49:58.457Z,0.10
2023-04-18T16:52:25.197Z,0.10
2023-04-18T16:54:53.484Z,0.10
2023-04-18T16:57:20.269Z,0.08
2023-04-18T16:59:47.907Z,0.00
2023-04-18T17:02:14.720Z,0.10
2023-04-18T17:04:42.198Z,0.10
2023-04-18T17:07:08.951Z,0.10
2023-04-18T17:09:35.809Z,0.10
2023-04-18T17:12:02.653Z,0.20
2023-04-18T17:14:29.597Z,0.20
2023-04-18T17:16:56.370Z,0.15
2023-04-18T17:19:23.573Z,0.20
2023-04-18T17:21:51.180Z,0.20
2023-04-18T17:24:18.998Z,0.20
2023-04-18T17:26:45.770Z,0.30
2023-04-18T17:29:12.514Z,0.50
2023-04-18T17:31:39.897Z,0.30
2023-04-18T17:34:07.212Z,0.35
2023-04-18T17:36:33.935Z,0.40
2023-04-18T17:39:07.042Z,0.40
2023-04-18T17:41:38.316Z,0.40
2023-04-18T17:44:07.935Z,0.32
2023-04-18T17:46:34.606Z,0.40
2023-04-18T17:49:01.548Z,0.30
2023-04-18T17:51:28.556Z,0.40
2023-04-18T17:53:55.229Z,0.40
2023-04-18T17:56:22.386Z,0.40
2023-04-18T17:58:49.719Z,0.30
2023-04-18T18:01:18.988Z,0.35
2023-04-18T18:03:47.595Z,0.30
2023-04-18T18:06:15.627Z,0.40
2023-04-18T18:08:43.123Z,0.55
2023-04-18T18:11:10.841Z,0.30
2023-04-18T18:13:39.140Z,0.20
2023-04-18T18:16:07.097Z,0.30
2023-04-18T18:18:34.286Z,0.20
2023-04-18T18:21:02.178Z,0.20
2023-04-18T18:23:29.081Z,0.20
2023-04-18T18:25:55.960Z,0.20
2023-04-18T18:28:23.863Z,0.28
2023-04-18T18:30:50.959Z,0.30
2023-04-18T18:33:18.029Z,0.30
2023-04-18T18:35:44.821Z,0.40
2023-04-18T18:38:11.881Z,0.40
2023-04-18T18:40:38.481Z,0.50
2023-04-18T18:43:06.010Z,0.50
2023-04-18T18:45:33.639Z,0.30
2023-04-18T18:48:00.692Z,0.30
2023-04-18T18:50:27.556Z,0.40
2023-04-18T18:52:54.238Z,0.40
2023-04-18T18:55:21.127Z,0.32
2023-04-18T18:57:47.811Z,0.30
2023-04-18T19:00:14.552Z,0.20
2023-04-18T19:02:41.904Z,0.30
2023-04-18T19:05:09.107Z,0.20
2023-04-18T19:07:36.130Z,0.20
2023-04-18T19:10:03.900Z,0.20
2023-04-18T19:12:31.466Z,0.20
2023-04-18T19:14:58.227Z,0.20
2023-04-18T19:17:25.239Z,0.20
2023-04-18T19:19:53.319Z,0.22
2023-04-18T19:22:20.300Z,0.20
2023-04-18T19:24:46.974Z,0.20
2023-04-18T19:27:13.604Z,0.30
2023-04-18T19:29:41.020Z,0.32
2023-04-18T19:32:07.876Z,0.32
2023-04-18T19:34:34.588Z,0.30
2023-04-18T19:37:01.424Z,0.30
2023-04-18T19:39:28.490Z,0.40
2023-04-18T19:41:55.274Z,0.40
2023-04-18T19:44:22.027Z,0.40
2023-04-18T19:46:48.716Z,0.40
2023-04-18T19:49:15.927Z,0.40
2023-04-18T19:51:42.830Z,0.43
2023-04-18T19:54:09.905Z,0.57
2023-04-18T19:56:36.600Z,0.40
2023-04-18T19:59:05.975Z,0.40
2023-04-18T20:01:32.958Z,0.40
2023-04-18T20:04:01.031Z,0.30
2023-04-18T20:06:29.736Z,0.35
2023-04-18T20:08:56.945Z,0.50
2023-04-18T20:11:25.040Z,0.40
2023-04-18T20:13:56.922Z,0.30
2023-04-18T20:16:24.021Z,0.40
2023-04-18T20:18:52.991Z,0.40
2023-04-18T20:21:21.763Z,0.50
2023-04-18T20:23:48.537Z,0.40
2023-04-18T20:26:15.273Z,0.40
2023-04-18T20:28:41.879Z,0.57
2023-04-18T20:31:08.669Z,0.50
2023-04-18T20:33:36.697Z,0.40
2023-04-18T20:36:04.611Z,0.50
2023-04-18T20:38:31.278Z,0.50
2023-04-18T20:41:00.821Z,0.70
2023-04-18T20:43:31.198Z,0.65
2023-04-18T20:45:58.849Z,0.57
2023-04-18T20:48:25.734Z,0.50
2023-04-18T20:50:52.788Z,0.40
2023-04-18T20:53:27.243Z,0.43
2023-04-18T20:55:54.622Z,0.50
2023-04-18T20:58:21.399Z,0.38
2023-04-18T21:00:49.643Z,0.40
2023-04-18T21:03:16.830Z,0.40
2023-04-18T21:05:45.194Z,0.30
2023-04-18T21:08:12.260Z,0.30
2023-04-18T21:10:39.939Z,0.30
2023-04-18T21:13:06.984Z,0.30
2023-04-18T21:15:35.821Z,0.10
2023-04-18T21:18:02.711Z,0.10
2023-04-18T21:20:29.374Z,0.10
2023-04-18T21:22:56.242Z,0.10
2023-04-18T21:25:22.858Z,0.05
2023-04-18T21:27:50.893Z,0.00
2023-04-18T21:30:17.942Z,0.00
2023-04-18T21:32:45.448Z,0.00
2023-04-18T21:35:12.266Z,0.00
2023-04-18T21:37:38.857Z,0.00
2023-04-18T21:40:06.229Z,0.00
2023-04-18T21:42:35.388Z,0.00
2023-04-18T21:45:02.471Z,0.00
2023-04-18T21:47:29.103Z,0.00
2023-04-18T21:49:56.046Z,0.00
2023-04-18T21:52:22.684Z,0.00
2023-04-18T21:54:49.604Z,0.00
2023-04-18T21:57:16.782Z,0.00
2023-04-18T21:59:43.406Z,0.00
2023-04-18T22:02:10.142Z,0.00
2023-04-18T22:04:38.198Z,0.00
2023-04-18T22:07:04.923Z,0.20
2023-04-18T22:09:33.897Z,0.20
2023-04-18T22:12:00.665Z,0.22
2023-04-18T22:14:28.209Z,0.20
2023-04-18T22:16:55.082Z,0.20
2023-04-18T22:19:21.916Z,0.20
2023-04-18T22:21:49.158Z,0.20
2023-04-18T22:24:16.764Z,0.10
2023-04-18T22:26:43.544Z,0.10
2023-04-18T22:29:10.140Z,0.10
2023-04-18T22:31:37.200Z,0.10
2023-04-18T22:34:05.013Z,0.15
2023-04-18T22:36:32.354Z,0.10
2023-04-18T22:38:59.410Z,0.10
2023-04-18T22:41:26.027Z,0.10
2023-04-18T22:43:53.058Z,0.10
2023-04-18T22:46:19.802Z,0.10
2023-04-18T22:48:46.737Z,0.10
2023-04-18T22:51:14.891Z,0.10
2023-04-18T22:53:41.858Z,0.10
2023-04-18T22:56:08.860Z,0.13
2023-04-18T22:58:35.913Z,0.10
2023-04-18T23:01:03.002Z,0.10
2023-04-18T23:03:32.248Z,0.10
2023-04-18T23:05:58.947Z,0.10
2023-04-18T23:08:25.903Z,0.10
2023-04-18T23:10:52.691Z,0.10
2023-04-18T23:13:19.414Z,0.05
2023-04-18T23:15:46.169Z,0.10
2023-04-18T23:18:12.852Z,0.10
2023-04-18T23:20:39.919Z,0.10
2023-04-18T23:23:06.834Z,0.10
2023-04-18T23:25:33.871Z,0.10
2023-04-18T23:28:00.941Z,0.10
2023-04-18T23:30:27.625Z,0.10
2023-04-18T23:32:55.194Z,0.10
2023-04-18T23:35:21.993Z,0.10
2023-04-18T23:37:48.729Z,0.10
2023-04-18T23:40:15.724Z,0.10
2023-04-18T23:42:42.572Z,0.10
2023-04-18T23:45:09.447Z,0.10
2023-04-18T23:47:36.875Z,0.10
2023-04-18T23:50:03.732Z,0.10
2023-04-18T23:52:30.697Z,0.10
2023-04-18T23:55:01.666Z,0.10
2023-04-18T23:57:28.372Z,0.10
2023-04-18T23:59:55.059Z,0.20
